KGRB

Green Bay-Austin Straubel International Airport

Green Bay, Wisconsin, USA
KGRB 151130Z 1512/1612 VRB03KT P6SM SCT070 BKN200 TEMPO 1512/1513 3SM BR FM151500 11006KT P6SM SCT070 BKN200 FM160800 04005KT 3SM BR SCT002 TEMPO 1610/1612 1/2SM FG BKN002
Issued Valid From Valid To
Aug-15 @ 11:30 UTC
(an hour ago)
Aug-15 @ 12:00 UTC
(42 minutes ago)
Aug-16 @ 12:00 UTC
(in 23 hours)
Aug-15 @ 12:00 to Aug-15 @ 15:00
KGRB 151130Z 1512/1612 VRB03KT P6SM SCT070 BKN200
Wind Visibility Clouds
Variable at 3 knots Greater than 6 miles
  • Scattered at 7,000' AGL
  • Broken at 20,000' AGL
Temporary Aug-15 @ 12:00 to Aug-15 @ 13:00
TEMPO 1512/1513 3SM BR
Visibility Conditions
3 miles
  • Mist
From Aug-15 @ 15:00 to Aug-16 @ 08:00
FM151500 11006KT P6SM SCT070 BKN200
Wind Visibility Clouds
110° at 6 knots Greater than 6 miles
  • Scattered at 7,000' AGL
  • Broken at 20,000' AGL
From Aug-16 @ 08:00 to Aug-16 @ 12:00
FM160800 04005KT 3SM BR SCT002
Wind Visibility Clouds Conditions
40° at 5 knots 3 miles
  • Scattered at 200' AGL
  • Mist
Temporary Aug-16 @ 10:00 to Aug-16 @ 12:00
TEMPO 1610/1612 1/2SM FG BKN002
Visibility Clouds Conditions
1/2 miles
  • Broken at 200' AGL
  • Fog
KGRB 151130Z 1512/1612 VRB03KT P6SM SCT070 BKN200 TEMPO 1512/1513 3SM BR FM151500 11006KT P6SM SCT070 BKN200 FM160800 04005KT 3SM BR SCT002 TEMPO 1610/1612 1/2SM FG BKN002
Issued Aug-15 @ 11:30 UTC
(an hour ago)
Valid From Aug-15 @ 12:00 UTC
(42 minutes ago)
Valid To Aug-16 @ 12:00 UTC
(in 23 hours)
Aug-15 @ 12:00 - Aug-15 @ 15:00
Wind Visibility
Variable at 3 knots Greater than 6 miles
Clouds
  • Scattered at 7,000' AGL
  • Broken at 20,000' AGL
Temporary Aug-15 @ 12:00 - Aug-15 @ 13:00
Conditions
  • Mist
From Aug-15 @ 15:00 - Aug-16 @ 08:00
Wind Visibility
110° at 6 knots Greater than 6 miles
Clouds
  • Scattered at 7,000' AGL
  • Broken at 20,000' AGL
From Aug-16 @ 08:00 - Aug-16 @ 12:00
Wind Visibility
40° at 5 knots 3 miles
Clouds
  • Scattered at 200' AGL
Conditions
  • Mist
Temporary Aug-16 @ 10:00 - Aug-16 @ 12:00
Clouds
  • Broken at 200' AGL
Conditions
  • Fog